createdAt,value
2023-02-17T00:00:55.727Z,938.60
2023-02-17T00:01:55.488Z,954.77
2023-02-17T00:02:55.460Z,939.93
2023-02-17T00:03:55.592Z,864.20
2023-02-17T00:04:55.498Z,892.02
2023-02-17T00:05:55.454Z,902.92
2023-02-17T00:06:55.418Z,914.09
2023-02-17T00:07:55.412Z,909.09
2023-02-17T00:08:55.405Z,950.00
2023-02-17T00:09:55.394Z,975.07
2023-02-17T00:10:55.428Z,983.00
2023-02-17T00:11:55.354Z,967.27
2023-02-17T00:12:55.360Z,956.15
2023-02-17T00:13:56.517Z,954.09
2023-02-17T00:14:55.363Z,922.97
2023-02-17T00:15:55.325Z,949.32
2023-02-17T00:16:55.327Z,946.62
2023-02-17T00:17:55.284Z,955.46
2023-02-17T00:18:55.272Z,969.39
2023-02-17T00:19:55.270Z,941.26
2023-02-17T00:20:55.252Z,933.33
2023-02-17T00:21:55.242Z,923.61
2023-02-17T00:22:55.215Z,943.93
2023-02-17T00:23:55.226Z,943.26
2023-02-17T00:24:55.211Z,953.40
2023-02-17T00:25:55.183Z,960.29
2023-02-17T00:26:55.166Z,947.29
2023-02-17T00:27:55.181Z,917.87
2023-02-17T00:28:55.145Z,950.00
2023-02-17T00:29:55.185Z,970.09
2023-02-17T00:30:55.198Z,975.79
2023-02-17T00:31:55.290Z,980.83
2023-02-17T00:32:55.079Z,1002.26
2023-02-17T00:33:55.089Z,972.22
2023-02-17T00:34:55.061Z,954.77
2023-02-17T00:35:55.068Z,938.60
2023-02-17T00:36:55.075Z,947.97
2023-02-17T00:37:55.038Z,939.27
2023-02-17T00:38:55.034Z,945.27
2023-02-17T00:39:55.026Z,965.87
2023-02-17T00:40:55.016Z,991.80
2023-02-17T00:41:54.992Z,1001.51
2023-02-17T00:42:55.034Z,985.91
2023-02-17T00:43:54.951Z,981.55
2023-02-17T00:44:54.945Z,984.46
2023-02-17T00:45:54.926Z,979.38
2023-02-17T00:46:55.041Z,895.62
2023-02-17T00:47:54.909Z,792.14
2023-02-17T00:48:54.887Z,847.13
2023-02-17T00:49:54.891Z,873.28
2023-02-17T00:50:54.880Z,875.58
2023-02-17T00:51:54.863Z,887.26
2023-02-17T00:52:54.850Z,896.83
2023-02-17T00:53:54.829Z,904.15
2023-02-17T00:54:54.836Z,930.07
2023-02-17T00:55:54.816Z,939.93
2023-02-17T00:56:54.829Z,953.40
2023-02-17T00:57:54.802Z,940.59
2023-02-17T00:58:54.777Z,930.72
2023-02-17T00:59:54.783Z,896.83
2023-02-17T01:00:54.741Z,929.42
2023-02-17T01:01:54.773Z,902.92
2023-02-17T01:02:54.743Z,907.85
2023-02-17T01:03:54.717Z,906.61
2023-02-17T01:04:54.796Z,921.69
2023-02-17T01:05:54.703Z,884.31
2023-02-17T01:06:54.665Z,850.38
2023-02-17T01:07:54.648Z,842.30
2023-02-17T01:08:54.633Z,782.35
2023-02-17T01:09:54.616Z,802.66
2023-02-17T01:10:54.656Z,826.09
2023-02-17T01:11:54.617Z,786.52
2023-02-17T01:12:54.586Z,824.55
2023-02-17T01:13:54.571Z,852.56
2023-02-17T01:14:54.572Z,864.76
2023-02-17T01:15:54.592Z,890.23
2023-02-17T01:16:54.683Z,896.83
2023-02-17T01:17:54.527Z,873.85
2023-02-17T01:18:54.532Z,881.96
2023-02-17T01:19:54.556Z,895.02
2023-02-17T01:20:54.500Z,911.58
2023-02-17T01:21:54.553Z,924.90
2023-02-17T01:22:54.451Z,928.77
2023-02-17T01:23:54.466Z,881.38
2023-02-17T01:24:54.445Z,880.21
2023-02-17T01:25:54.425Z,905.38
2023-02-17T01:26:54.415Z,906.61
2023-02-17T01:27:54.397Z,912.83
2023-02-17T01:28:54.393Z,909.09
2023-02-17T01:29:54.445Z,876.73
2023-02-17T01:30:54.423Z,865.32
2023-02-17T01:31:54.408Z,851.47
2023-02-17T01:32:54.318Z,825.06
2023-02-17T01:33:54.333Z,812.96
2023-02-17T01:34:54.310Z,840.18
2023-02-17T01:35:54.304Z,857.51
2023-02-17T01:36:54.275Z,895.02
2023-02-17T01:37:54.275Z,873.85
2023-02-17T01:38:54.255Z,898.04
2023-02-17T01:39:54.245Z,929.42
2023-02-17T01:40:54.273Z,954.77
2023-02-17T01:41:54.226Z,957.52
2023-02-17T01:42:54.202Z,947.29
2023-02-17T01:43:54.187Z,942.59
2023-02-17T01:44:54.166Z,971.51
2023-02-17T01:45:54.160Z,972.93
2023-02-17T01:46:54.230Z,980.83
2023-02-17T01:47:54.174Z,972.93
2023-02-17T01:48:54.115Z,977.22
2023-02-17T01:49:54.102Z,977.94
2023-02-17T01:50:54.086Z,989.58
2023-02-17T01:51:54.087Z,976.51
2023-02-17T01:52:54.067Z,965.87
2023-02-17T01:53:54.045Z,958.21
2023-02-17T01:54:54.039Z,967.27
2023-02-17T01:55:54.035Z,972.93
2023-02-17T01:56:54.019Z,954.09
2023-02-17T01:57:54.032Z,957.52
2023-02-17T01:58:53.984Z,967.98
2023-02-17T01:59:53.976Z,977.22
2023-02-17T02:00:53.960Z,951.36
2023-02-17T02:01:54.034Z,957.52
2023-02-17T02:02:54.103Z,971.51
2023-02-17T02:03:53.981Z,963.07
2023-02-17T02:04:53.931Z,959.59
2023-02-17T02:05:53.885Z,975.79
2023-02-17T02:06:53.886Z,957.52
2023-02-17T02:07:53.894Z,945.27
2023-02-17T02:08:53.860Z,922.97
2023-02-17T02:09:53.851Z,924.25
2023-02-17T02:10:53.843Z,948.64
2023-02-17T02:11:53.817Z,972.22
2023-02-17T02:12:53.811Z,946.62
2023-02-17T02:13:53.789Z,947.97
2023-02-17T02:14:53.794Z,961.68
2023-02-17T02:15:53.779Z,981.55
2023-02-17T02:16:53.761Z,999.25
2023-02-17T02:17:53.748Z,998.50
2023-02-17T02:18:53.732Z,1006.81
2023-02-17T02:19:53.719Z,1009.87
2023-02-17T02:20:53.715Z,1033.41
2023-02-17T02:21:53.693Z,1038.25
2023-02-17T02:22:53.720Z,1026.23
2023-02-17T02:23:53.679Z,1035.82
2023-02-17T02:24:53.678Z,1043.96
2023-02-17T02:25:53.643Z,1044.78
2023-02-17T02:26:53.635Z,1058.07
2023-02-17T02:27:53.645Z,1049.72
2023-02-17T02:28:53.607Z,1070.85
2023-02-17T02:29:53.669Z,1083.06
2023-02-17T02:30:53.634Z,1088.38
2023-02-17T02:31:53.569Z,1085.71
2023-02-17T02:32:53.564Z,1068.27
2023-02-17T02:33:53.541Z,1044.78
2023-02-17T02:34:53.568Z,1043.96
2023-02-17T02:35:53.517Z,1016.82
2023-02-17T02:36:53.508Z,1050.55
2023-02-17T02:37:53.527Z,1052.21
2023-02-17T02:38:53.475Z,1056.39
2023-02-17T02:39:53.486Z,1076.05
2023-02-17T02:40:53.454Z,1080.42
2023-02-17T02:41:53.469Z,1074.31
2023-02-17T02:42:53.436Z,1089.27
2023-02-17T02:43:53.426Z,1061.45
2023-02-17T02:44:53.404Z,1067.42
2023-02-17T02:45:53.423Z,1075.18
2023-02-17T02:46:53.378Z,1071.72
2023-02-17T02:47:53.388Z,1076.92
2023-02-17T02:48:53.356Z,1074.31
2023-02-17T02:49:53.344Z,1083.94
2023-02-17T02:50:53.331Z,1087.49
2023-02-17T02:51:53.326Z,1091.06
2023-02-17T02:52:53.317Z,1091.06
2023-02-17T02:53:53.319Z,1076.92
2023-02-17T02:54:53.269Z,1058.07
2023-02-17T02:55:53.255Z,1063.15
2023-02-17T02:56:53.250Z,1076.05
2023-02-17T02:57:53.282Z,1088.38
2023-02-17T02:58:53.254Z,1083.06
2023-02-17T02:59:53.214Z,1071.72
2023-02-17T03:00:53.213Z,1068.27
2023-02-17T03:01:53.177Z,1053.05
2023-02-17T03:02:53.181Z,1044.78
2023-02-17T03:03:53.233Z,1053.88
2023-02-17T03:04:53.171Z,1035.82
2023-02-17T03:05:53.154Z,1012.95
2023-02-17T03:06:53.115Z,1016.04
2023-02-17T03:07:53.125Z,1039.06
2023-02-17T03:08:53.147Z,1058.92
2023-02-17T03:09:53.081Z,1056.39
2023-02-17T03:10:53.089Z,1061.45
2023-02-17T03:11:53.064Z,1059.76
2023-02-17T03:12:53.064Z,1058.07
2023-02-17T03:13:53.041Z,1047.24
2023-02-17T03:14:53.029Z,1065.70
2023-02-17T03:15:53.006Z,1063.15
2023-02-17T03:16:52.989Z,1078.67
2023-02-17T03:17:52.979Z,1064.85
2023-02-17T03:18:52.991Z,1043.14
2023-02-17T03:19:52.971Z,1045.60
2023-02-17T03:20:52.948Z,1063.15
2023-02-17T03:21:52.934Z,1042.32
2023-02-17T03:22:52.986Z,1038.25
2023-02-17T03:23:52.928Z,1043.14
2023-02-17T03:24:52.931Z,1048.07
2023-02-17T03:25:52.892Z,1035.82
2023-02-17T03:26:52.869Z,1007.58
2023-02-17T03:27:52.887Z,993.28
2023-02-17T03:28:52.845Z,1008.34
2023-02-17T03:29:52.835Z,1006.81
2023-02-17T03:30:52.838Z,1006.81
2023-02-17T03:31:52.919Z,1008.34
2023-02-17T03:32:52.801Z,939.27
2023-02-17T03:33:52.814Z,909.09
2023-02-17T03:34:52.769Z,961.68
2023-02-17T03:35:52.786Z,1015.27
2023-02-17T03:36:52.805Z,1025.44
2023-02-17T03:37:52.728Z,1029.41
2023-02-17T03:38:52.712Z,1058.07
2023-02-17T03:39:52.718Z,1063.15
2023-02-17T03:40:52.755Z,1065.70
2023-02-17T03:41:52.674Z,1065.70
2023-02-17T03:42:52.672Z,1056.39
2023-02-17T03:43:52.665Z,1084.83
2023-02-17T03:44:52.631Z,1085.71
2023-02-17T03:45:52.714Z,1064.85
2023-02-17T03:46:52.622Z,1022.29
2023-02-17T03:47:52.648Z,1048.07
2023-02-17T03:48:52.587Z,1083.94
2023-02-17T03:49:52.604Z,1095.55
2023-02-17T03:50:52.558Z,1091.06
2023-02-17T03:51:52.577Z,1088.38
2023-02-17T03:52:52.546Z,1119.53
2023-02-17T03:53:52.510Z,1125.21
2023-02-17T03:54:52.507Z,1122.36
2023-02-17T03:55:52.508Z,1144.58
2023-02-17T03:56:52.494Z,1144.58
2023-02-17T03:57:52.467Z,1133.84
2023-02-17T03:58:52.474Z,1102.82
2023-02-17T03:59:52.463Z,1089.27
2023-02-17T04:00:52.423Z,1116.71
2023-02-17T04:01:52.443Z,1143.59
2023-02-17T04:02:52.406Z,1137.72
2023-02-17T04:03:52.446Z,1149.52
2023-02-17T04:04:52.382Z,1091.95
2023-02-17T04:05:52.359Z,1076.92
2023-02-17T04:06:52.360Z,1083.06
2023-02-17T04:07:52.350Z,1097.36
2023-02-17T04:08:52.348Z,1094.65
2023-02-17T04:09:52.318Z,1119.53
2023-02-17T04:10:52.294Z,1101.91
2023-02-17T04:11:52.290Z,1064.00
2023-02-17T04:12:52.270Z,1049.72
2023-02-17T04:13:52.249Z,1058.92
2023-02-17T04:14:52.258Z,1066.56
2023-02-17T04:15:52.277Z,1065.70
2023-02-17T04:16:52.235Z,1093.75
2023-02-17T04:17:52.218Z,1086.60
2023-02-17T04:18:52.230Z,1085.71
2023-02-17T04:19:52.211Z,1096.45
2023-02-17T04:20:52.173Z,1117.65
2023-02-17T04:21:52.162Z,1118.59
2023-02-17T04:22:52.150Z,1075.18
2023-02-17T04:23:52.161Z,1079.55
2023-02-17T04:24:52.119Z,1103.73
2023-02-17T04:25:52.136Z,1116.71
2023-02-17T04:26:52.165Z,1112.04
2023-02-17T04:27:52.087Z,1111.11
2023-02-17T04:28:52.084Z,1112.97
2023-02-17T04:29:52.050Z,1129.99
2023-02-17T04:30:52.226Z,1141.63
2023-02-17T04:31:52.147Z,1107.41
2023-02-17T04:32:52.055Z,1100.08
2023-02-17T04:33:52.007Z,1116.71
2023-02-17T04:34:52.011Z,1124.26
2023-02-17T04:35:51.991Z,1141.63
2023-02-17T04:36:51.974Z,1106.49
2023-02-17T04:37:51.960Z,1159.55
2023-02-17T04:38:51.965Z,1145.56
2023-02-17T04:39:51.912Z,1156.52
2023-02-17T04:40:51.914Z,1142.61
2023-02-17T04:41:51.895Z,1165.64
2023-02-17T04:42:51.960Z,1160.56
2023-02-17T04:43:51.887Z,1159.55
2023-02-17T04:44:51.859Z,1181.17
2023-02-17T04:45:51.874Z,1176.99
2023-02-17T04:46:51.828Z,1173.87
2023-02-17T04:47:51.832Z,1197.12
2023-02-17T04:48:51.841Z,1192.82
2023-02-17T04:49:51.919Z,1166.67
2023-02-17T04:50:51.861Z,1160.56
2023-02-17T04:51:51.781Z,1186.44
2023-02-17T04:52:51.775Z,1189.62
2023-02-17T04:53:51.836Z,1188.56
2023-02-17T04:54:51.729Z,1187.50
2023-02-17T04:55:51.737Z,1212.40
2023-02-17T04:56:51.756Z,1226.94
2023-02-17T04:57:51.696Z,1183.27
2023-02-17T04:58:51.824Z,1167.69
2023-02-17T04:59:51.670Z,1152.51
2023-02-17T05:00:51.658Z,1133.84
2023-02-17T05:01:51.638Z,1153.51
2023-02-17T05:02:51.650Z,1156.52
2023-02-17T05:03:51.656Z,1169.74
2023-02-17T05:04:51.647Z,1156.52
2023-02-17T05:05:51.715Z,1189.62
2023-02-17T05:06:51.594Z,1187.50
2023-02-17T05:07:51.624Z,1126.16
2023-02-17T05:08:51.566Z,1138.70
2023-02-17T05:09:51.542Z,1143.59
2023-02-17T05:10:51.542Z,1118.59
2023-02-17T05:11:51.519Z,1155.52
2023-02-17T05:12:51.528Z,1183.27
2023-02-17T05:13:51.517Z,1202.53
2023-02-17T05:14:51.491Z,1221.30
2023-02-17T05:15:51.494Z,1178.03
2023-02-17T05:16:51.471Z,1197.12
2023-02-17T05:17:51.583Z,1143.59
2023-02-17T05:18:51.444Z,1073.45
2023-02-17T05:19:51.424Z,1107.41
2023-02-17T05:20:51.448Z,1137.72
2023-02-17T05:21:51.415Z,1079.55
2023-02-17T05:22:51.372Z,1068.27
2023-02-17T05:23:51.388Z,1026.23
2023-02-17T05:24:51.342Z,1012.18
2023-02-17T05:25:51.366Z,1052.21
2023-02-17T05:26:51.333Z,1072.58
2023-02-17T05:27:51.312Z,1077.80
2023-02-17T05:28:51.326Z,1046.42
2023-02-17T05:29:51.305Z,1016.04
2023-02-17T05:30:51.357Z,1039.06
2023-02-17T05:31:51.353Z,1023.08
2023-02-17T05:32:51.255Z,938.60
2023-02-17T05:33:51.281Z,1017.60
2023-02-17T05:34:51.235Z,1046.42
2023-02-17T05:35:51.334Z,1055.56
2023-02-17T05:36:51.236Z,1033.41
2023-02-17T05:37:51.228Z,1007.58
2023-02-17T05:38:51.257Z,963.07
2023-02-17T05:39:51.173Z,991.80
2023-02-17T05:40:51.145Z,1016.82
2023-02-17T05:41:51.175Z,1039.06
2023-02-17T05:42:51.141Z,1063.15
2023-02-17T05:43:51.129Z,1058.92
2023-02-17T05:44:51.119Z,1066.56
2023-02-17T05:45:51.093Z,1037.44
2023-02-17T05:46:51.176Z,986.65
2023-02-17T05:47:51.119Z,1048.07
2023-02-17T05:48:51.052Z,1068.27
2023-02-17T05:49:51.059Z,1112.97
2023-02-17T05:50:51.062Z,1068.27
2023-02-17T05:51:51.021Z,1094.65
2023-02-17T05:52:51.023Z,1066.56
2023-02-17T05:53:50.985Z,1002.26
2023-02-17T05:54:50.987Z,1009.10
2023-02-17T05:55:50.967Z,952.72
2023-02-17T05:56:50.953Z,911.58
2023-02-17T05:57:51.031Z,990.32
2023-02-17T05:58:50.927Z,1031.81
2023-02-17T05:59:50.921Z,1009.87
2023-02-17T06:00:50.927Z,1003.77
2023-02-17T06:01:50.899Z,1017.60
2023-02-17T06:02:50.886Z,998.50
2023-02-17T06:03:50.910Z,969.39
2023-02-17T06:04:51.000Z,967.27
2023-02-17T06:05:50.875Z,985.18
2023-02-17T06:06:50.851Z,1016.04
2023-02-17T06:07:50.840Z,1017.60
2023-02-17T06:08:50.876Z,951.36
2023-02-17T06:09:50.835Z,997.75
2023-02-17T06:10:50.788Z,995.51
2023-02-17T06:11:50.777Z,1011.41
2023-02-17T06:12:50.756Z,1009.10
2023-02-17T06:13:50.819Z,1022.29
2023-02-17T06:14:50.724Z,997.00
2023-02-17T06:15:50.751Z,1027.82
2023-02-17T06:16:50.705Z,1051.38
2023-02-17T06:17:50.706Z,1034.21
2023-02-17T06:18:50.692Z,1007.58
2023-02-17T06:19:50.665Z,989.58
2023-02-17T06:20:50.692Z,960.98
2023-02-17T06:21:50.656Z,980.83
2023-02-17T06:22:50.634Z,1003.02
2023-02-17T06:23:50.621Z,987.38
2023-02-17T06:24:50.632Z,1002.26
2023-02-17T06:25:50.629Z,1016.82
2023-02-17T06:26:50.633Z,1049.72
2023-02-17T06:27:50.579Z,1056.39
2023-02-17T06:28:50.550Z,1010.64
2023-02-17T06:29:50.571Z,993.28
2023-02-17T06:30:50.586Z,965.17
2023-02-17T06:31:50.591Z,889.04
2023-02-17T06:32:50.494Z,855.85
2023-02-17T06:33:50.490Z,840.71
2023-02-17T06:34:50.511Z,831.77
2023-02-17T06:35:50.508Z,756.54
2023-02-17T06:36:50.440Z,688.43
2023-02-17T06:37:50.472Z,716.65
2023-02-17T06:38:50.422Z,688.43
2023-02-17T06:39:50.430Z,642.49
2023-02-17T06:40:50.471Z,630.90
2023-02-17T06:41:50.425Z,633.91
2023-02-17T06:42:50.387Z,623.79
2023-02-17T06:43:50.384Z,628.51
2023-02-17T06:44:50.348Z,592.63
2023-02-17T06:45:50.417Z,605.59
2023-02-17T06:46:50.351Z,601.21
2023-02-17T06:47:50.313Z,599.04
2023-02-17T06:48:50.336Z,616.27
2023-02-17T06:49:50.276Z,644.36
2023-02-17T06:50:50.288Z,676.51
2023-02-17T06:51:50.267Z,700.78
2023-02-17T06:52:50.239Z,694.91
2023-02-17T06:53:50.236Z,682.07
2023-02-17T06:54:50.215Z,622.62
2023-02-17T06:55:50.212Z,582.75
2023-02-17T06:56:50.237Z,651.95
2023-02-17T06:57:51.289Z,635.73
2023-02-17T06:58:50.226Z,658.41
2023-02-17T06:59:50.299Z,642.49
2023-02-17T07:00:50.147Z,571.72
2023-02-17T07:01:50.259Z,522.69
2023-02-17T07:02:50.193Z,514.59
2023-02-17T07:03:50.119Z,562.52
2023-02-17T07:04:50.113Z,613.42
2023-02-17T07:05:50.099Z,666.33
2023-02-17T07:06:50.064Z,712.81
2023-02-17T07:07:50.065Z,726.05
2023-02-17T07:08:50.042Z,708.25
2023-02-17T07:09:50.164Z,701.52
2023-02-17T07:10:50.045Z,727.64
2023-02-17T07:11:50.007Z,735.70
2023-02-17T07:12:50.016Z,711.28
2023-02-17T07:13:50.001Z,697.10
2023-02-17T07:14:49.973Z,740.62
2023-02-17T07:15:49.978Z,747.19
2023-02-17T07:16:50.036Z,742.27
2023-02-17T07:17:49.950Z,712.04
2023-02-17T07:18:49.924Z,702.26
2023-02-17T07:19:49.914Z,743.94
2023-02-17T07:20:49.944Z,767.90
2023-02-17T07:21:49.911Z,752.26
2023-02-17T07:22:49.895Z,743.94
2023-02-17T07:23:49.862Z,747.19
2023-02-17T07:24:49.868Z,750.66
2023-02-17T07:25:49.841Z,763.05
2023-02-17T07:26:49.848Z,733.26
2023-02-17T07:27:49.859Z,753.11
2023-02-17T07:28:49.795Z,784.66
2023-02-17T07:29:49.798Z,780.97
2023-02-17T07:30:49.835Z,768.34
2023-02-17T07:31:49.847Z,751.41
2023-02-17T07:32:49.742Z,730.04
2023-02-17T07:33:49.741Z,741.45
2023-02-17T07:34:49.720Z,773.26
2023-02-17T07:35:49.713Z,760.00
2023-02-17T07:36:49.762Z,765.69
2023-02-17T07:37:49.688Z,792.61
2023-02-17T07:38:49.678Z,803.62
2023-02-17T07:39:49.661Z,809.49
2023-02-17T07:40:49.668Z,829.18
2023-02-17T07:41:49.666Z,807.04
2023-02-17T07:42:49.615Z,799.28
2023-02-17T07:43:49.629Z,815.45
2023-02-17T07:44:49.612Z,761.74
2023-02-17T07:45:49.627Z,745.61
2023-02-17T07:46:49.580Z,716.65
2023-02-17T07:47:49.586Z,737.33
2023-02-17T07:48:49.549Z,761.30
2023-02-17T07:49:49.541Z,762.18
2023-02-17T07:50:49.543Z,775.51
2023-02-17T07:51:49.590Z,786.05
2023-02-17T07:52:49.495Z,785.59
2023-02-17T07:53:49.486Z,776.87
2023-02-17T07:54:49.478Z,783.27
2023-02-17T07:55:49.456Z,817.96
2023-02-17T07:56:49.442Z,826.60
2023-02-17T07:57:49.519Z,808.02
2023-02-17T07:58:49.444Z,826.60
2023-02-17T07:59:49.413Z,828.66
2023-02-17T08:00:49.422Z,829.69
2023-02-17T08:01:49.405Z,820.48
2023-02-17T08:02:49.371Z,826.09
2023-02-17T08:03:49.348Z,844.44
2023-02-17T08:04:49.335Z,848.76
2023-02-17T08:05:49.328Z,856.41
2023-02-17T08:06:49.311Z,849.30
2023-02-17T08:07:49.310Z,819.47
2023-02-17T08:08:49.321Z,838.59
2023-02-17T08:09:49.287Z,841.24
2023-02-17T08:10:49.257Z,826.60
2023-02-17T08:11:50.019Z,809.99
2023-02-17T08:12:49.239Z,816.45
2023-02-17T08:13:49.223Z,798.80
2023-02-17T08:14:49.215Z,802.66
2023-02-17T08:15:49.237Z,789.32
2023-02-17T08:16:49.261Z,797.84
2023-02-17T08:17:51.054Z,798.80
2023-02-17T08:18:49.158Z,801.20
2023-02-17T08:19:49.625Z,775.51
2023-02-17T08:20:49.151Z,779.14
2023-02-17T08:21:49.138Z,769.67
2023-02-17T08:22:49.143Z,761.74
2023-02-17T08:23:49.100Z,707.49
2023-02-17T08:24:49.103Z,646.24
2023-02-17T08:25:49.103Z,677.89
2023-02-17T08:26:49.059Z,690.58
2023-02-17T08:27:49.061Z,659.06
2023-02-17T08:28:49.059Z,634.51
2023-02-17T08:29:49.036Z,648.13
2023-02-17T08:30:49.158Z,677.20
2023-02-17T08:31:49.192Z,679.28
2023-02-17T08:32:48.997Z,681.37
2023-02-17T08:33:49.030Z,679.97
2023-02-17T08:34:48.990Z,708.25
2023-02-17T08:35:49.011Z,706.74
2023-02-17T08:36:48.945Z,701.52
2023-02-17T08:37:48.944Z,729.24
2023-02-17T08:38:48.939Z,716.65
2023-02-17T08:39:48.905Z,724.47
2023-02-17T08:40:48.920Z,712.04
2023-02-17T08:41:48.879Z,715.88
2023-02-17T08:42:48.873Z,711.28
2023-02-17T08:43:48.872Z,716.65
2023-02-17T08:44:48.854Z,663.67
2023-02-17T08:45:48.942Z,671.72
2023-02-17T08:46:48.830Z,633.30
2023-02-17T08:47:48.814Z,657.76
2023-02-17T08:48:48.802Z,682.07
2023-02-17T08:49:48.829Z,677.20
2023-02-17T08:50:48.768Z,659.06
2023-02-17T08:51:48.764Z,671.05
2023-02-17T08:52:48.779Z,689.14
2023-02-17T08:53:48.750Z,677.20
2023-02-17T08:54:50.408Z,675.82
2023-02-17T08:55:49.858Z,671.72
2023-02-17T08:56:48.724Z,661.69
2023-02-17T08:57:48.708Z,678.59
2023-02-17T08:58:48.671Z,689.14
2023-02-17T08:59:48.668Z,675.14
2023-02-17T09:00:48.691Z,703.00
2023-02-17T09:01:48.705Z,720.54
2023-02-17T09:02:48.637Z,722.10
2023-02-17T09:03:48.617Z,701.52
2023-02-17T09:04:48.727Z,695.64
2023-02-17T09:05:50.018Z,689.86
2023-02-17T09:06:48.648Z,687.72
2023-02-17T09:07:48.595Z,697.83
2023-02-17T09:08:48.615Z,688.43
2023-02-17T09:09:49.380Z,670.37
2023-02-17T09:10:48.523Z,681.37
2023-02-17T09:11:48.514Z,702.26
2023-02-17T09:12:48.501Z,700.78
2023-02-17T09:13:48.500Z,701.52
2023-02-17T09:14:48.479Z,701.52
2023-02-17T09:15:48.540Z,695.64
2023-02-17T09:16:48.477Z,698.57
2023-02-17T09:17:48.512Z,675.82
2023-02-17T09:18:48.425Z,657.11
2023-02-17T09:19:48.432Z,618.56
2023-02-17T09:20:48.477Z,595.82
2023-02-17T09:21:48.458Z,578.18
2023-02-17T09:22:48.387Z,570.24
2023-02-17T09:23:48.422Z,570.73
2023-02-17T09:24:48.836Z,586.35
2023-02-17T09:25:48.375Z,587.39
2023-02-17T09:26:48.319Z,600.12
2023-02-17T09:27:48.340Z,612.29
2023-02-17T09:28:48.362Z,616.27
2023-02-17T09:29:48.323Z,609.48
2023-02-17T09:30:48.480Z,605.59
2023-02-17T09:31:48.418Z,587.91
2023-02-17T09:32:48.276Z,556.39
2023-02-17T09:33:48.337Z,508.29
2023-02-17T09:34:48.312Z,471.49
2023-02-17T09:35:48.225Z,499.88
2023-02-17T09:36:48.216Z,526.83
2023-02-17T09:37:48.192Z,527.67
2023-02-17T09:38:48.258Z,514.99
2023-02-17T09:39:48.205Z,515.79
2023-02-17T09:40:48.170Z,514.59
2023-02-17T09:41:48.214Z,494.67
2023-02-17T09:42:48.207Z,496.89
2023-02-17T09:43:48.123Z,478.63
2023-02-17T09:44:48.153Z,498.38
2023-02-17T09:45:48.129Z,514.59
2023-02-17T09:47:00.897Z,543.20
2023-02-17T09:47:48.116Z,570.24
2023-02-17T09:48:48.083Z,585.32
2023-02-17T09:49:48.117Z,603.94
2023-02-17T09:50:48.058Z,611.16
2023-02-17T09:51:48.024Z,613.42
2023-02-17T09:52:48.047Z,623.20
2023-02-17T09:53:48.010Z,613.99
2023-02-17T09:54:48.011Z,603.39
2023-02-17T09:55:48.032Z,621.46
2023-02-17T09:56:47.963Z,621.46
2023-02-17T09:57:47.964Z,638.17
2023-02-17T09:58:47.986Z,619.72
2023-02-17T09:59:47.947Z,612.29
2023-02-17T10:00:47.943Z,619.72
2023-02-17T10:01:47.910Z,632.70
2023-02-17T10:02:47.901Z,650.67
2023-02-17T10:03:47.941Z,658.41
2023-02-17T10:04:47.967Z,681.37
2023-02-17T10:05:47.918Z,682.77
2023-02-17T10:06:47.848Z,677.20
2023-02-17T10:07:47.880Z,673.77
2023-02-17T10:08:47.919Z,670.37
2023-02-17T10:09:47.807Z,671.72
2023-02-17T10:10:47.826Z,673.09
2023-02-17T10:11:47.817Z,691.30
2023-02-17T10:12:47.781Z,694.18
2023-02-17T10:13:47.799Z,685.59
2023-02-17T10:14:47.760Z,679.97
2023-02-17T10:15:47.772Z,687.72
2023-02-17T10:16:47.727Z,688.43
2023-02-17T10:17:47.706Z,683.47
2023-02-17T10:18:47.692Z,668.34
2023-02-17T10:19:47.752Z,654.52
2023-02-17T10:20:47.709Z,635.73
2023-02-17T10:21:47.656Z,627.32
2023-02-17T10:22:47.693Z,648.77
2023-02-17T10:23:47.669Z,655.81
2023-02-17T10:24:47.613Z,656.46
2023-02-17T10:25:47.604Z,648.13
2023-02-17T10:26:47.651Z,671.72
2023-02-17T10:27:47.576Z,681.37
2023-02-17T10:28:47.573Z,702.26
2023-02-17T10:29:47.593Z,683.47
2023-02-17T10:30:47.653Z,677.20
2023-02-17T10:31:47.686Z,707.49
2023-02-17T10:32:47.619Z,715.88
2023-02-17T10:33:47.524Z,714.34
2023-02-17T10:34:47.523Z,714.34
2023-02-17T10:35:47.469Z,676.51
2023-02-17T10:36:47.535Z,671.05
2023-02-17T10:37:47.487Z,682.77
2023-02-17T10:38:47.434Z,670.37
2023-02-17T10:39:47.470Z,661.69
2023-02-17T10:40:47.495Z,665.00
2023-02-17T10:41:47.410Z,686.30
2023-02-17T10:42:47.411Z,677.89
2023-02-17T10:43:47.374Z,682.07
2023-02-17T10:44:47.386Z,684.18
2023-02-17T10:45:47.351Z,705.99
2023-02-17T10:46:47.367Z,712.04
2023-02-17T10:47:47.356Z,721.32
2023-02-17T10:48:47.353Z,727.64
2023-02-17T10:49:47.292Z,717.42
2023-02-17T10:50:47.288Z,726.05
2023-02-17T10:51:47.296Z,749.81
2023-02-17T10:52:47.276Z,757.40
2023-02-17T10:53:47.273Z,740.62
2023-02-17T10:54:47.277Z,748.03
2023-02-17T10:55:47.215Z,782.35
2023-02-17T10:56:47.234Z,798.32
2023-02-17T10:57:47.201Z,802.66
2023-02-17T10:58:47.218Z,809.00
2023-02-17T10:59:47.164Z,815.45
2023-02-17T11:00:47.226Z,811.47
2023-02-17T11:01:47.158Z,802.66
2023-02-17T11:02:47.160Z,779.60
2023-02-17T11:03:47.150Z,789.79
2023-02-17T11:04:47.119Z,810.97
2023-02-17T11:05:47.092Z,808.51
2023-02-17T11:06:47.096Z,818.46
2023-02-17T11:07:47.077Z,813.95
2023-02-17T11:08:47.051Z,832.81
2023-02-17T11:09:47.049Z,848.21
2023-02-17T11:10:47.042Z,831.77
2023-02-17T11:11:47.007Z,837.00
2023-02-17T11:12:47.026Z,834.90
2023-02-17T11:13:46.988Z,771.91
2023-02-17T11:14:46.987Z,759.57
2023-02-17T11:15:46.962Z,763.49
2023-02-17T11:16:46.976Z,778.69
2023-02-17T11:17:46.940Z,819.47
2023-02-17T11:18:46.934Z,834.90
2023-02-17T11:19:46.897Z,854.76
2023-02-17T11:20:46.883Z,867.01
2023-02-17T11:21:46.869Z,870.42
2023-02-17T11:22:46.871Z,870.42
2023-02-17T11:23:46.852Z,853.11
2023-02-17T11:24:46.832Z,837.53
2023-02-17T11:25:46.818Z,872.13
2023-02-17T11:26:46.804Z,884.90
2023-02-17T11:27:46.808Z,877.89
2023-02-17T11:28:46.778Z,886.08
2023-02-17T11:29:46.762Z,914.09
2023-02-17T11:30:46.756Z,905.38
2023-02-17T11:31:46.834Z,873.85
2023-02-17T11:32:46.735Z,785.59
2023-02-17T11:33:46.712Z,840.71
2023-02-17T11:34:46.716Z,874.42
2023-02-17T11:35:46.686Z,880.21
2023-02-17T11:36:46.674Z,892.02
2023-02-17T11:37:46.671Z,902.92
2023-02-17T11:38:46.674Z,909.71
2023-02-17T11:39:46.647Z,905.38
2023-02-17T11:40:46.625Z,893.22
2023-02-17T11:41:46.600Z,898.04
2023-02-17T11:42:46.588Z,895.62
2023-02-17T11:43:46.588Z,864.20
2023-02-17T11:44:46.563Z,859.17
2023-02-17T11:45:46.562Z,883.13
2023-02-17T11:46:46.558Z,895.62
2023-02-17T11:47:46.531Z,917.87
2023-02-17T11:48:46.541Z,907.85
2023-02-17T11:49:46.506Z,878.47
2023-02-17T11:50:46.492Z,901.69
2023-02-17T11:51:46.496Z,895.02
2023-02-17T11:52:46.522Z,884.90
2023-02-17T11:53:46.463Z,875.00
2023-02-17T11:54:46.434Z,858.06
2023-02-17T11:55:46.431Z,872.70
2023-02-17T11:56:46.410Z,862.52
2023-02-17T11:57:46.394Z,858.62
2023-02-17T11:58:46.378Z,868.71
2023-02-17T11:59:46.397Z,878.47
2023-02-17T12:00:46.385Z,898.04
2023-02-17T12:01:46.339Z,876.73
2023-02-17T12:02:46.347Z,883.72
2023-02-17T12:03:46.328Z,891.42
2023-02-17T12:04:46.355Z,878.47
2023-02-17T12:05:46.330Z,822.00
2023-02-17T12:06:46.305Z,812.46
2023-02-17T12:07:46.268Z,832.81
2023-02-17T12:08:47.621Z,847.13
2023-02-17T12:09:46.249Z,835.95
2023-02-17T12:10:46.235Z,838.06
2023-02-17T12:11:46.205Z,831.25
2023-02-17T12:12:46.200Z,820.48
2023-02-17T12:13:46.186Z,799.28
2023-02-17T12:14:46.206Z,766.57
2023-02-17T12:15:46.156Z,763.49
2023-02-17T12:16:46.191Z,777.78
2023-02-17T12:17:46.140Z,782.81
2023-02-17T12:18:46.127Z,794.50
2023-02-17T12:19:46.137Z,798.80
2023-02-17T12:20:46.156Z,834.90
2023-02-17T12:21:46.076Z,837.53